createdAt,value
2023-04-06T00:02:01.684Z,3.97
2023-04-06T00:04:28.518Z,4.32
2023-04-06T00:06:55.524Z,5.35
2023-04-06T00:09:22.482Z,4.40
2023-04-06T00:11:49.319Z,4.15
2023-04-06T00:14:18.346Z,4.65
2023-04-06T00:16:45.605Z,3.40
2023-04-06T00:19:12.617Z,3.42
2023-04-06T00:21:40.253Z,4.00
2023-04-06T00:24:07.111Z,3.80
2023-04-06T00:26:34.238Z,3.53
2023-04-06T00:29:01.094Z,3.35
2023-04-06T00:31:27.903Z,3.67
2023-04-06T00:33:54.678Z,3.85
2023-04-06T00:36:21.502Z,4.10
2023-04-06T00:38:48.338Z,4.00
2023-04-06T00:41:15.081Z,3.75
2023-04-06T00:43:41.829Z,4.35
2023-04-06T00:46:09.196Z,3.67
2023-04-06T00:48:36.221Z,4.68
2023-04-06T00:51:03.122Z,4.80
2023-04-06T00:53:29.881Z,4.13
2023-04-06T00:55:56.742Z,4.10
2023-04-06T00:58:23.561Z,3.95
2023-04-06T01:00:50.477Z,4.05
2023-04-06T01:03:17.660Z,4.40
2023-04-06T01:05:45.206Z,3.85
2023-04-06T01:08:12.185Z,3.95
2023-04-06T01:10:38.978Z,3.65
2023-04-06T01:13:05.790Z,3.63
2023-04-06T01:15:32.773Z,3.65
2023-04-06T01:17:59.634Z,4.00
2023-04-06T01:20:26.460Z,4.28
2023-04-06T01:22:53.326Z,4.03
2023-04-06T01:25:20.138Z,3.92
2023-04-06T01:27:46.928Z,3.75
2023-04-06T01:30:14.141Z,4.05
2023-04-06T01:32:41.020Z,4.70
2023-04-06T01:35:08.180Z,3.90
2023-04-06T01:37:34.930Z,3.85
2023-04-06T01:40:01.974Z,4.22
2023-04-06T01:42:29.160Z,4.25
2023-04-06T01:44:56.094Z,4.38
2023-04-06T01:47:23.009Z,3.63
2023-04-06T01:49:49.828Z,3.58
2023-04-06T01:52:16.996Z,4.30
2023-04-06T01:54:43.767Z,3.97
2023-04-06T01:57:11.718Z,4.45
2023-04-06T01:59:38.773Z,4.25
2023-04-06T02:02:05.944Z,4.25
2023-04-06T02:04:32.753Z,3.78
2023-04-06T02:06:59.460Z,4.65
2023-04-06T02:09:26.751Z,4.10
2023-04-06T02:11:53.520Z,4.07
2023-04-06T02:14:20.456Z,3.88
2023-04-06T02:16:47.387Z,4.15
2023-04-06T02:19:14.254Z,4.30
2023-04-06T02:21:41.089Z,4.40
2023-04-06T02:24:08.011Z,4.53
2023-04-06T02:26:34.734Z,4.10
2023-04-06T02:29:03.030Z,4.22
2023-04-06T02:31:29.915Z,4.28
2023-04-06T02:33:56.861Z,4.95
2023-04-06T02:36:23.625Z,4.60
2023-04-06T02:38:50.626Z,4.03
2023-04-06T02:41:17.461Z,4.88
2023-04-06T02:43:44.236Z,4.50
2023-04-06T02:46:11.284Z,4.10
2023-04-06T02:48:38.254Z,3.88
2023-04-06T02:51:05.181Z,3.80
2023-04-06T02:53:31.931Z,4.25
2023-04-06T02:55:58.774Z,4.32
2023-04-06T02:58:26.138Z,4.35
2023-04-06T03:00:53.172Z,4.15
2023-04-06T03:03:20.129Z,4.55
2023-04-06T03:05:47.001Z,4.45
2023-04-06T03:08:13.785Z,4.15
2023-04-06T03:10:40.625Z,3.60
2023-04-06T03:13:07.587Z,4.53
2023-04-06T03:15:34.432Z,4.63
2023-04-06T03:18:01.285Z,3.90
2023-04-06T03:20:28.232Z,4.70
2023-04-06T03:22:55.009Z,3.90
2023-04-06T03:25:21.825Z,5.30
2023-04-06T03:27:48.875Z,4.70
2023-04-06T03:30:17.207Z,4.10
2023-04-06T03:32:44.495Z,4.13
2023-04-06T03:35:11.523Z,3.90
2023-04-06T03:37:38.268Z,3.78
2023-04-06T03:40:06.489Z,5.57
2023-04-06T03:42:33.560Z,4.97
2023-04-06T03:45:00.467Z,3.85
2023-04-06T03:47:27.266Z,4.50
2023-04-06T03:49:54.072Z,4.05
2023-04-06T03:52:20.953Z,4.43
2023-04-06T03:54:47.770Z,4.30
2023-04-06T03:57:14.793Z,4.30
2023-04-06T03:59:41.641Z,4.53
2023-04-06T04:02:08.530Z,4.40
2023-04-06T04:04:35.732Z,5.18
2023-04-06T04:07:02.794Z,4.25
2023-04-06T04:09:29.919Z,5.07
2023-04-06T04:11:57.003Z,3.95
2023-04-06T04:14:23.896Z,4.47
2023-04-06T04:16:50.923Z,4.40
2023-04-06T04:19:17.729Z,4.10
2023-04-06T04:21:48.172Z,3.85
2023-04-06T04:24:15.097Z,4.93
2023-04-06T04:26:42.025Z,4.22
2023-04-06T04:29:09.335Z,4.53
2023-04-06T04:31:36.487Z,4.60
2023-04-06T04:34:03.312Z,4.63
2023-04-06T04:36:30.701Z,4.70
2023-04-06T04:38:57.475Z,5.32
2023-04-06T04:41:24.255Z,3.85
2023-04-06T04:43:51.187Z,4.20
2023-04-06T04:46:18.091Z,3.72
2023-04-06T04:48:44.913Z,4.60
2023-04-06T04:51:11.871Z,4.13
2023-04-06T04:53:38.847Z,4.55
2023-04-06T04:56:05.829Z,5.07
2023-04-06T04:58:32.654Z,5.03
2023-04-06T05:00:59.501Z,3.95
2023-04-06T05:03:27.061Z,4.90
2023-04-06T05:05:54.011Z,4.63
2023-04-06T05:08:21.449Z,4.35
2023-04-06T05:10:49.219Z,4.25
2023-04-06T05:13:16.460Z,6.22
2023-04-06T05:15:43.292Z,6.35
2023-04-06T05:18:10.795Z,5.35
2023-04-06T05:20:39.539Z,5.95
2023-04-06T05:23:06.644Z,7.43
2023-04-06T05:25:33.849Z,6.40
2023-04-06T05:28:00.904Z,10.50
2023-04-06T05:30:27.806Z,6.57
2023-04-06T05:32:54.643Z,6.22
2023-04-06T05:35:21.565Z,6.82
2023-04-06T05:37:48.435Z,7.22
2023-04-06T05:40:15.524Z,5.35
2023-04-06T05:42:43.605Z,6.38
2023-04-06T05:45:12.042Z,7.13
2023-04-06T05:47:38.929Z,5.90
2023-04-06T05:50:06.490Z,5.00
2023-04-06T05:52:33.274Z,6.40
2023-04-06T05:55:00.110Z,6.28
2023-04-06T05:57:27.203Z,9.43
2023-04-06T05:59:53.924Z,7.88
2023-04-06T06:02:21.286Z,10.80
2023-04-06T06:04:48.321Z,7.28
2023-04-06T06:07:18.585Z,8.68
2023-04-06T06:09:45.799Z,6.70
2023-04-06T06:12:14.571Z,10.10
2023-04-06T06:14:41.544Z,6.25
2023-04-06T06:17:08.890Z,7.07
2023-04-06T06:19:36.055Z,5.50
2023-04-06T06:22:03.708Z,7.95
2023-04-06T06:24:32.235Z,7.75
2023-04-06T06:26:59.632Z,4.70
2023-04-06T06:29:26.603Z,7.05
2023-04-06T06:31:53.656Z,4.25
2023-04-06T06:34:20.662Z,3.92
2023-04-06T06:36:49.011Z,3.72
2023-04-06T06:39:16.819Z,4.03
2023-04-06T06:41:43.653Z,3.58
2023-04-06T06:44:10.728Z,4.72
2023-04-06T06:46:37.760Z,3.42
2023-04-06T06:49:04.705Z,3.72
2023-04-06T06:51:31.790Z,3.60
2023-04-06T06:53:58.639Z,3.33
2023-04-06T06:56:26.776Z,4.15
2023-04-06T06:58:53.590Z,3.42
2023-04-06T07:01:21.419Z,3.88
2023-04-06T07:03:48.460Z,3.15
2023-04-06T07:06:15.292Z,4.05
2023-04-06T07:08:42.209Z,3.10
2023-04-06T07:11:09.133Z,3.28
2023-04-06T07:13:35.941Z,3.60
2023-04-06T07:16:02.807Z,3.75
2023-04-06T07:18:29.576Z,3.13
2023-04-06T07:20:56.724Z,4.05
2023-04-06T07:23:23.633Z,4.03
2023-04-06T07:25:53.295Z,3.40
2023-04-06T07:28:20.222Z,3.50
2023-04-06T07:30:46.965Z,3.60
2023-04-06T07:33:13.793Z,4.65
2023-04-06T07:35:40.604Z,3.72
2023-04-06T07:38:07.409Z,3.80
2023-04-06T07:40:34.489Z,3.30
2023-04-06T07:43:01.386Z,3.93
2023-04-06T07:45:28.167Z,3.33
2023-04-06T07:47:55.174Z,4.10
2023-04-06T07:50:22.002Z,3.60
2023-04-06T07:52:48.758Z,3.70
2023-04-06T07:55:15.790Z,3.50
2023-04-06T07:57:42.541Z,3.53
2023-04-06T08:00:10.555Z,3.60
2023-04-06T08:02:37.567Z,3.83
2023-04-06T08:05:04.744Z,3.67
2023-04-06T08:07:31.534Z,3.93
2023-04-06T08:09:58.363Z,4.00
2023-04-06T08:12:25.327Z,4.23
2023-04-06T08:14:52.296Z,5.03
2023-04-06T08:17:19.100Z,3.57
2023-04-06T08:19:46.128Z,3.67
2023-04-06T08:22:13.202Z,4.57
2023-04-06T08:24:40.045Z,4.03
2023-04-06T08:27:07.235Z,4.00
2023-04-06T08:29:34.150Z,3.40
2023-04-06T08:32:01.497Z,4.40
2023-04-06T08:34:28.476Z,4.30
2023-04-06T08:36:55.316Z,3.70
2023-04-06T08:39:26.564Z,3.30
2023-04-06T08:41:53.867Z,3.73
2023-04-06T08:44:20.607Z,3.67
2023-04-06T08:46:47.784Z,3.60
2023-04-06T08:49:14.637Z,3.50
2023-04-06T08:51:41.658Z,3.10
2023-04-06T08:54:08.707Z,3.70
2023-04-06T08:56:40.801Z,3.40
2023-04-06T08:59:07.683Z,3.00
2023-04-06T09:01:35.954Z,3.20
2023-04-06T09:04:03.165Z,3.23
2023-04-06T09:06:31.743Z,3.20
2023-04-06T09:08:59.168Z,2.80
2023-04-06T09:11:26.193Z,2.87
2023-04-06T09:13:55.090Z,3.07
2023-04-06T09:16:22.667Z,3.47
2023-04-06T09:18:49.876Z,3.07
2023-04-06T09:21:22.866Z,3.00
2023-04-06T09:24:02.236Z,3.53
2023-04-06T09:26:29.126Z,2.57
2023-04-06T09:29:00.599Z,2.40
2023-04-06T09:31:31.718Z,2.67
2023-04-06T09:33:58.810Z,4.40
2023-04-06T09:36:33.040Z,3.13
2023-04-06T09:39:01.532Z,2.13
2023-04-06T09:41:29.624Z,2.40
2023-04-06T09:44:10.264Z,2.40
2023-04-06T09:46:55.023Z,2.30
2023-04-06T09:49:25.431Z,2.10
2023-04-06T09:52:00.058Z,2.27
2023-04-06T09:54:29.396Z,2.80
2023-04-06T09:57:10.402Z,1.93
2023-04-06T10:00:12.430Z,2.77
2023-04-06T10:03:04.737Z,1.70
2023-04-06T10:05:36.229Z,2.60
2023-04-06T10:08:07.780Z,2.47
2023-04-06T10:10:34.523Z,2.43
2023-04-06T10:13:01.385Z,2.90
2023-04-06T10:15:31.409Z,3.80
2023-04-06T10:18:01.845Z,3.37
2023-04-06T10:20:37.538Z,4.20
2023-04-06T10:23:17.376Z,2.90
2023-04-06T10:26:02.607Z,2.30
2023-04-06T10:28:36.946Z,3.80
2023-04-06T10:31:06.644Z,3.73
2023-04-06T10:33:33.496Z,3.53
2023-04-06T10:36:22.287Z,2.30
2023-04-06T10:38:55.290Z,2.37
2023-04-06T10:41:22.196Z,2.70
2023-04-06T10:43:56.073Z,2.53
2023-04-06T10:46:35.487Z,2.07
2023-04-06T10:49:13.221Z,2.20
2023-04-06T10:51:40.254Z,2.30
2023-04-06T10:54:07.649Z,4.43
2023-04-06T10:56:36.442Z,3.00
2023-04-06T10:59:03.332Z,1.93
2023-04-06T11:01:30.141Z,2.30
2023-04-06T11:04:00.099Z,2.60
2023-04-06T11:06:28.530Z,2.30
2023-04-06T11:08:55.723Z,2.60
2023-04-06T11:11:24.489Z,2.53
2023-04-06T11:13:56.041Z,3.20
2023-04-06T11:16:23.953Z,3.00
2023-04-06T11:18:55.066Z,1.97
2023-04-06T11:21:41.294Z,2.10
2023-04-06T11:24:17.273Z,1.87
2023-04-06T11:26:45.053Z,1.90
2023-04-06T11:29:13.145Z,2.03
2023-04-06T11:31:45.891Z,2.07
2023-04-06T11:34:16.933Z,2.13
2023-04-06T11:36:44.505Z,1.83
2023-04-06T11:39:11.659Z,1.90
2023-04-06T11:41:38.445Z,2.80
2023-04-06T11:44:05.710Z,2.23
2023-04-06T11:46:33.039Z,1.93
2023-04-06T11:49:01.725Z,2.30
2023-04-06T11:51:28.948Z,2.10
2023-04-06T11:53:56.377Z,1.77
2023-04-06T11:56:30.127Z,1.73
2023-04-06T11:58:58.127Z,1.93
2023-04-06T12:01:25.388Z,1.50
2023-04-06T12:03:52.711Z,1.73
2023-04-06T12:06:19.862Z,2.80
2023-04-06T12:08:46.731Z,2.10
2023-04-06T12:11:13.564Z,1.53
2023-04-06T12:13:40.793Z,1.90
2023-04-06T12:16:08.072Z,1.77
2023-04-06T12:18:34.931Z,2.47
2023-04-06T12:21:01.788Z,1.70
2023-04-06T12:23:28.615Z,2.00
2023-04-06T12:25:55.756Z,1.80
2023-04-06T12:28:24.263Z,2.67
2023-04-06T12:30:52.016Z,1.90
2023-04-06T12:33:19.020Z,2.30
2023-04-06T12:35:46.169Z,1.50
2023-04-06T12:38:13.155Z,1.90
2023-04-06T12:40:40.860Z,3.10
2023-04-06T12:43:07.852Z,2.40
2023-04-06T12:45:34.688Z,2.00
2023-04-06T12:48:02.220Z,2.10
2023-04-06T12:50:29.102Z,1.43
2023-04-06T12:52:55.982Z,1.27
2023-04-06T12:55:22.850Z,2.23
2023-04-06T12:57:49.694Z,1.53
2023-04-06T13:00:17.265Z,2.17
2023-04-06T13:02:48.069Z,5.50
2023-04-06T13:05:19.642Z,3.60
2023-04-06T13:07:47.786Z,3.00
2023-04-06T13:10:14.846Z,2.30
2023-04-06T13:12:41.698Z,2.60
2023-04-06T13:15:08.950Z,2.53
2023-04-06T13:17:35.795Z,2.70
2023-04-06T13:20:02.687Z,1.90
2023-04-06T13:22:29.534Z,2.40
2023-04-06T13:24:56.543Z,4.80
2023-04-06T13:27:23.365Z,4.00
2023-04-06T13:29:50.474Z,3.17
2023-04-06T13:32:17.349Z,2.70
2023-04-06T13:34:45.911Z,2.40
2023-04-06T13:37:14.296Z,2.10
2023-04-06T13:39:41.145Z,1.80
2023-04-06T13:42:08.146Z,2.50
2023-04-06T13:44:35.105Z,2.97
2023-04-06T13:47:02.063Z,2.77
2023-04-06T13:49:28.900Z,2.03
2023-04-06T13:51:55.784Z,2.33
2023-04-06T13:54:22.624Z,2.20
2023-04-06T13:56:49.466Z,1.77
2023-04-06T13:59:16.435Z,2.80
2023-04-06T14:01:43.483Z,2.80
2023-04-06T14:04:10.417Z,1.83
2023-04-06T14:06:38.136Z,1.90
2023-04-06T14:09:05.175Z,1.70
2023-04-06T14:11:32.761Z,1.73
2023-04-06T14:14:00.038Z,2.30
2023-04-06T14:16:27.601Z,2.53
2023-04-06T14:18:54.764Z,2.70
2023-04-06T14:21:21.610Z,2.73
2023-04-06T14:23:48.375Z,3.50
2023-04-06T14:26:15.179Z,2.60
2023-04-06T14:28:42.332Z,2.10
2023-04-06T14:31:16.408Z,2.08
2023-04-06T14:33:43.679Z,1.70
2023-04-06T14:36:11.164Z,2.70
2023-04-06T14:38:38.593Z,1.90
2023-04-06T14:41:05.586Z,2.67
2023-04-06T14:43:32.350Z,2.13
2023-04-06T14:46:02.861Z,2.87
2023-04-06T14:48:29.949Z,2.10
2023-04-06T14:50:57.517Z,2.03
2023-04-06T14:53:24.866Z,1.83
2023-04-06T14:55:52.438Z,3.77
2023-04-06T14:58:23.223Z,3.60
2023-04-06T15:00:50.292Z,2.70
2023-04-06T15:03:17.427Z,2.57
2023-04-06T15:05:44.893Z,2.20
2023-04-06T15:08:12.596Z,2.37
2023-04-06T15:10:39.383Z,3.13
2023-04-06T15:13:06.336Z,2.80
2023-04-06T15:15:33.322Z,2.67
2023-04-06T15:18:03.406Z,3.17
2023-04-06T15:20:30.671Z,2.27
2023-04-06T15:22:57.718Z,1.97
2023-04-06T15:25:24.499Z,1.50
2023-04-06T15:27:51.382Z,2.07
2023-04-06T15:30:18.143Z,1.63
2023-04-06T15:32:59.495Z,1.97
2023-04-06T15:35:26.537Z,1.97
2023-04-06T15:37:53.496Z,1.40
2023-04-06T15:40:20.341Z,1.77
2023-04-06T15:42:47.272Z,1.70
2023-04-06T15:45:14.503Z,2.30
2023-04-06T15:47:41.814Z,2.10
2023-04-06T15:50:08.982Z,2.93
2023-04-06T15:52:36.352Z,1.93
2023-04-06T15:55:04.179Z,1.80
2023-04-06T15:57:31.156Z,1.73
2023-04-06T16:00:01.176Z,2.00
2023-04-06T16:02:28.306Z,2.00
2023-04-06T16:04:58.782Z,2.40
2023-04-06T16:07:25.953Z,2.23
2023-04-06T16:09:52.745Z,2.30
2023-04-06T16:12:19.827Z,2.37
2023-04-06T16:14:46.865Z,2.40
2023-04-06T16:17:14.195Z,2.40
2023-04-06T16:19:42.068Z,2.20
2023-04-06T16:22:08.922Z,2.97
2023-04-06T16:24:35.952Z,2.20
2023-04-06T16:27:03.002Z,2.43
2023-04-06T16:29:31.903Z,2.87
2023-04-06T16:31:58.790Z,2.63
2023-04-06T16:34:25.585Z,1.93
2023-04-06T16:36:52.792Z,2.10
2023-04-06T16:39:19.673Z,2.73
2023-04-06T16:41:46.541Z,2.00
2023-04-06T16:44:13.374Z,2.53
2023-04-06T16:46:40.429Z,3.47
2023-04-06T16:49:07.306Z,2.97
2023-04-06T16:51:34.164Z,2.30
2023-04-06T16:54:02.349Z,2.00
2023-04-06T16:56:29.299Z,1.87
2023-04-06T16:58:56.014Z,2.70
2023-04-06T17:01:25.251Z,2.53
2023-04-06T17:03:52.504Z,2.97
2023-04-06T17:06:19.506Z,4.00
2023-04-06T17:08:47.254Z,3.20
2023-04-06T17:11:16.683Z,2.20
2023-04-06T17:13:46.934Z,2.90
2023-04-06T17:16:13.888Z,2.37
2023-04-06T17:18:41.041Z,2.57
2023-04-06T17:21:10.228Z,2.57
2023-04-06T17:23:37.160Z,2.90
2023-04-06T17:26:05.056Z,2.47
2023-04-06T17:28:32.276Z,2.87
2023-04-06T17:30:59.818Z,2.60
2023-04-06T17:33:27.642Z,3.20
2023-04-06T17:35:54.560Z,2.23
2023-04-06T17:38:21.542Z,2.23
2023-04-06T17:40:48.437Z,2.70
2023-04-06T17:43:15.384Z,3.10
2023-04-06T17:45:42.139Z,3.20
2023-04-06T17:48:08.972Z,3.00
2023-04-06T17:50:41.348Z,3.90
2023-04-06T17:53:08.552Z,3.47
2023-04-06T17:55:36.340Z,3.47
2023-04-06T17:58:03.177Z,3.47
2023-04-06T18:00:30.049Z,3.00
2023-04-06T18:02:57.445Z,2.53
2023-04-06T18:05:24.996Z,3.10
2023-04-06T18:07:52.910Z,2.73
2023-04-06T18:10:19.722Z,2.80
2023-04-06T18:12:46.509Z,2.67
2023-04-06T18:15:13.556Z,1.90
2023-04-06T18:17:40.607Z,2.43
2023-04-06T18:20:08.714Z,2.90
2023-04-06T18:22:36.985Z,2.43
2023-04-06T18:25:05.011Z,2.47
2023-04-06T18:27:31.946Z,2.70
2023-04-06T18:30:01.214Z,2.90
2023-04-06T18:32:30.938Z,3.00
2023-04-06T18:34:58.125Z,2.67
2023-04-06T18:37:25.870Z,2.97
2023-04-06T18:39:54.379Z,2.60
2023-04-06T18:42:21.342Z,2.70
2023-04-06T18:44:48.492Z,2.60
2023-04-06T18:47:15.745Z,2.43
2023-04-06T18:49:42.927Z,2.13
2023-04-06T18:52:09.774Z,2.57
2023-04-06T18:54:36.566Z,2.43
2023-04-06T18:57:04.169Z,2.60
2023-04-06T18:59:31.720Z,2.10
2023-04-06T19:01:59.439Z,3.23
2023-04-06T19:04:27.077Z,2.53
2023-04-06T19:06:55.354Z,2.70
2023-04-06T19:09:22.263Z,2.27
2023-04-06T19:11:49.138Z,2.87
2023-04-06T19:14:16.121Z,3.00
2023-04-06T19:16:51.784Z,3.20
2023-04-06T19:19:19.504Z,2.53
2023-04-06T19:21:46.573Z,2.50
2023-04-06T19:24:13.303Z,2.60
2023-04-06T19:26:40.072Z,3.33
2023-04-06T19:29:06.848Z,3.70
2023-04-06T19:31:33.692Z,2.60
2023-04-06T19:34:00.496Z,2.60
2023-04-06T19:36:28.283Z,3.50
2023-04-06T19:38:55.508Z,3.10
2023-04-06T19:41:22.316Z,2.90
2023-04-06T19:43:49.019Z,2.50
2023-04-06T19:46:15.970Z,2.47
2023-04-06T19:48:43.266Z,3.10
2023-04-06T19:51:10.078Z,2.90
2023-04-06T19:53:37.713Z,2.97
2023-04-06T19:56:04.913Z,3.50
2023-04-06T19:58:31.918Z,3.73
2023-04-06T20:00:58.670Z,3.50
2023-04-06T20:03:25.676Z,3.13
2023-04-06T20:05:52.615Z,3.60
2023-04-06T20:08:19.374Z,3.40
2023-04-06T20:10:46.411Z,3.20
2023-04-06T20:13:13.134Z,3.40
2023-04-06T20:15:40.167Z,3.00
2023-04-06T20:18:06.986Z,3.83
2023-04-06T20:20:33.821Z,3.90
2023-04-06T20:23:00.646Z,3.67
2023-04-06T20:25:27.715Z,3.50
2023-04-06T20:27:54.545Z,4.10
2023-04-06T20:30:21.385Z,3.77
2023-04-06T20:32:48.165Z,3.37
2023-04-06T20:35:14.990Z,4.40
2023-04-06T20:37:42.543Z,3.50
2023-04-06T20:40:09.822Z,4.40
2023-04-06T20:42:37.425Z,4.27
2023-04-06T20:45:04.711Z,4.13
2023-04-06T20:47:32.027Z,4.03
2023-04-06T20:49:58.923Z,3.20
2023-04-06T20:52:26.650Z,4.13
2023-04-06T20:54:54.799Z,3.20
2023-04-06T20:57:22.330Z,4.70
2023-04-06T20:59:49.099Z,3.80
2023-04-06T21:02:16.354Z,5.10
2023-04-06T21:04:43.747Z,3.92
2023-04-06T21:07:10.854Z,4.05
2023-04-06T21:09:38.711Z,4.93
2023-04-06T21:12:06.304Z,3.60
2023-04-06T21:14:33.176Z,3.63
2023-04-06T21:17:00.770Z,4.75
2023-04-06T21:19:30.372Z,3.55
2023-04-06T21:21:57.112Z,3.90
2023-04-06T21:24:23.873Z,3.75
2023-04-06T21:26:50.622Z,3.90
2023-04-06T21:29:17.390Z,4.38
2023-04-06T21:31:44.326Z,3.35
2023-04-06T21:34:11.604Z,4.55
2023-04-06T21:36:39.716Z,3.90
2023-04-06T21:39:06.708Z,4.13
2023-04-06T21:41:33.698Z,3.85
2023-04-06T21:44:00.496Z,4.30
2023-04-06T21:46:27.351Z,4.10
2023-04-06T21:48:54.128Z,3.60
2023-04-06T21:51:21.546Z,3.70
2023-04-06T21:53:48.385Z,3.58
2023-04-06T21:56:20.849Z,4.13
2023-04-06T21:58:47.630Z,3.63
2023-04-06T22:01:14.408Z,3.53
2023-04-06T22:03:41.320Z,3.97
2023-04-06T22:06:08.406Z,4.28
2023-04-06T22:08:35.280Z,4.95
2023-04-06T22:11:07.656Z,4.75
2023-04-06T22:13:34.521Z,3.33
2023-04-06T22:16:02.163Z,4.32
2023-04-06T22:18:28.914Z,5.47
2023-04-06T22:20:56.085Z,5.70
2023-04-06T22:23:22.860Z,4.30
2023-04-06T22:25:49.678Z,4.00
2023-04-06T22:28:16.451Z,4.13
2023-04-06T22:30:43.272Z,3.70
2023-04-06T22:33:10.113Z,4.45
2023-04-06T22:35:36.892Z,4.28
2023-04-06T22:38:04.113Z,5.25
2023-04-06T22:40:30.878Z,4.43
2023-04-06T22:42:57.687Z,4.60
2023-04-06T22:45:25.905Z,4.55
2023-04-06T22:47:52.996Z,4.65
2023-04-06T22:50:19.978Z,3.83
2023-04-06T22:52:46.765Z,4.80
2023-04-06T22:55:13.620Z,4.30
2023-04-06T22:57:40.480Z,4.90
2023-04-06T23:00:08.264Z,3.88
2023-04-06T23:02:35.055Z,7.45
2023-04-06T23:05:02.245Z,4.97
2023-04-06T23:07:29.452Z,4.70
2023-04-06T23:09:56.850Z,3.83
2023-04-06T23:12:24.076Z,6.60
2023-04-06T23:14:50.958Z,4.72
2023-04-06T23:17:17.788Z,5.20
2023-04-06T23:19:44.571Z,4.20
2023-04-06T23:22:11.568Z,3.97
2023-04-06T23:24:38.361Z,4.38
2023-04-06T23:27:05.739Z,4.63
2023-04-06T23:29:32.475Z,3.80
2023-04-06T23:31:59.250Z,4.43
2023-04-06T23:34:26.048Z,5.93
2023-04-06T23:36:53.068Z,3.78
2023-04-06T23:39:19.875Z,4.25
2023-04-06T23:41:46.576Z,5.40
2023-04-06T23:44:13.626Z,4.45
2023-04-06T23:46:40.548Z,4.40
2023-04-06T23:49:07.620Z,4.30
2023-04-06T23:51:34.338Z,4.82
2023-04-06T23:54:01.111Z,5.43
2023-04-06T23:56:27.818Z,3.85
2023-04-06T23:58:54.815Z,4.40
